createdAt,value
2019-05-05T00:02:24.888Z,2.52
2019-05-05T00:05:35.379Z,2.39
2019-05-05T00:08:24.590Z,2.54
2019-05-05T00:11:35.152Z,2.69
2019-05-05T00:20:16.436Z,2.47
2019-05-05T00:22:58.018Z,2.52
2019-05-05T00:25:46.866Z,2.47
2019-05-05T00:28:35.716Z,2.65
2019-05-05T00:31:24.639Z,2.45
2019-05-05T00:34:15.294Z,2.55
2019-05-05T00:37:04.768Z,2.39
2019-05-05T00:39:54.790Z,2.27
2019-05-05T00:42:45.556Z,2.30
2019-05-05T00:51:44.354Z,2.40
2019-05-05T00:54:34.715Z,2.33
2019-05-05T00:57:24.697Z,2.21
2019-05-05T01:00:52.059Z,2.11
2019-05-05T01:03:40.934Z,2.01
2019-05-05T01:15:21.543Z,1.90
2019-05-05T01:18:10.418Z,1.71
2019-05-05T01:20:59.320Z,1.64
2019-05-05T01:23:45.520Z,1.65
2019-05-05T01:26:35.404Z,1.59
2019-05-05T01:29:25.327Z,1.49
2019-05-05T01:32:35.144Z,1.47
2019-05-05T01:38:44.665Z,1.37
2019-05-05T01:44:35.106Z,1.30
2019-05-05T01:47:25.450Z,1.24
2019-05-05T01:50:20.626Z,1.31
2019-05-05T01:53:04.990Z,1.33
2019-05-05T01:55:54.293Z,1.18
2019-05-05T01:58:44.601Z,1.21
2019-05-05T02:01:35.237Z,1.19
2019-05-05T02:04:25.028Z,1.12
2019-05-05T02:07:14.733Z,1.15
2019-05-05T02:13:19.148Z,1.12
2019-05-05T02:16:08.052Z,1.21
2019-05-05T02:18:56.937Z,1.23
2019-05-05T02:21:45.790Z,1.17
2019-05-05T02:24:27.979Z,0.98
2019-05-05T02:30:31.893Z,0.94
2019-05-05T02:36:30.280Z,0.85
2019-05-05T02:39:19.189Z,0.86
2019-05-05T02:42:08.179Z,1.06
2019-05-05T02:55:08.282Z,1.73
2019-05-05T03:01:44.756Z,1.50
2019-05-05T03:04:33.748Z,1.31
2019-05-05T03:10:37.653Z,1.25
2019-05-05T03:13:26.683Z,1.11
2019-05-05T03:16:54.277Z,1.01
2019-05-05T03:19:44.451Z,1.13
2019-05-05T03:22:26.655Z,1.01
2019-05-05T03:25:15.553Z,0.89
2019-05-05T03:31:19.179Z,0.82
2019-05-05T03:34:08.046Z,0.77
2019-05-05T03:36:57.011Z,0.79
2019-05-05T03:43:34.233Z,0.85
2019-05-05T03:46:23.823Z,0.80
2019-05-05T03:49:14.204Z,0.72
2019-05-05T03:55:34.469Z,0.70
2019-05-05T03:58:24.100Z,0.82
2019-05-05T04:04:49.786Z,0.91
2019-05-05T04:11:07.016Z,0.94
2019-05-05T04:13:55.911Z,1.14
2019-05-05T04:20:03.814Z,1.14
2019-05-05T04:22:54.292Z,1.15
2019-05-05T04:25:43.921Z,1.31
2019-05-05T04:28:34.590Z,1.51
2019-05-05T04:31:24.619Z,1.74
2019-05-05T04:34:13.581Z,2.04
2019-05-05T04:37:04.123Z,2.28
2019-05-05T04:39:53.752Z,2.41
2019-05-05T04:42:44.211Z,2.59
2019-05-05T04:45:34.805Z,2.60
2019-05-05T04:57:15.546Z,3.00
2019-05-05T05:03:38.907Z,3.62
2019-05-05T05:09:37.180Z,3.91
2019-05-05T05:12:26.031Z,3.97
2019-05-05T05:15:15.155Z,4.02
2019-05-05T05:18:24.025Z,4.08
2019-05-05T05:21:14.516Z,4.13
2019-05-05T05:23:57.742Z,4.40
2019-05-05T05:26:46.554Z,4.42
2019-05-05T05:29:35.393Z,4.66
2019-05-05T05:32:24.825Z,4.61
2019-05-05T05:35:14.837Z,4.58
2019-05-05T05:38:04.666Z,4.62
2019-05-05T05:46:49.557Z,4.83
2019-05-05T05:49:57.397Z,4.83
2019-05-05T05:52:46.238Z,4.95
2019-05-05T05:55:35.062Z,5.09
2019-05-05T05:58:24.495Z,4.95
2019-05-05T06:01:14.809Z,5.33
2019-05-05T06:04:05.004Z,5.63
2019-05-05T06:06:54.401Z,5.81
2019-05-05T06:09:44.396Z,6.13
2019-05-05T06:12:33.742Z,6.33
2019-05-05T06:15:24.484Z,6.70
2019-05-05T06:18:14.485Z,7.19
2019-05-05T06:21:04.486Z,7.21
2019-05-05T06:23:47.202Z,7.57
2019-05-05T06:26:36.024Z,7.79
2019-05-05T06:29:24.860Z,7.68
2019-05-05T06:32:14.550Z,7.68
2019-05-05T06:38:19.787Z,7.34
2019-05-05T06:41:27.783Z,6.67
2019-05-05T06:44:35.665Z,6.45
2019-05-05T06:50:34.521Z,6.89
2019-05-05T06:53:24.528Z,6.94
2019-05-05T06:56:14.601Z,6.98
2019-05-05T06:59:04.462Z,7.19
2019-05-05T07:01:53.663Z,7.43
2019-05-05T07:04:44.561Z,7.46
2019-05-05T07:07:34.461Z,7.25
2019-05-05T07:10:24.476Z,7.08
2019-05-05T07:13:14.086Z,6.84
2019-05-05T07:16:04.927Z,6.67
2019-05-05T07:18:55.073Z,6.50
2019-05-05T07:21:43.974Z,6.54
2019-05-05T07:24:26.250Z,6.73
2019-05-05T07:27:15.154Z,6.94
2019-05-05T07:30:24.879Z,6.94
2019-05-05T07:33:14.871Z,7.03
2019-05-05T07:36:24.947Z,7.32
2019-05-05T07:39:14.439Z,7.37
2019-05-05T07:42:04.615Z,7.46
2019-05-05T07:44:54.729Z,7.06
2019-05-05T07:47:47.180Z,7.41
2019-05-05T07:50:35.830Z,7.60
2019-05-05T07:53:14.545Z,7.70
2019-05-05T07:55:37.077Z,7.82
2019-05-05T07:58:25.920Z,7.86
2019-05-05T08:01:14.946Z,8.40
2019-05-05T08:04:04.556Z,8.68
2019-05-05T08:06:54.336Z,8.86
2019-05-05T08:09:44.513Z,8.97
2019-05-05T08:12:34.263Z,9.48
2019-05-05T08:18:39.108Z,10.99
2019-05-05T08:21:28.028Z,11.37
2019-05-05T08:24:11.553Z,11.43
2019-05-05T08:30:19.190Z,10.77
2019-05-05T08:33:08.114Z,11.24
2019-05-05T08:35:56.969Z,10.72
2019-05-05T08:38:46.046Z,11.46
2019-05-05T08:41:34.883Z,11.12
2019-05-05T08:44:23.776Z,12.18
2019-05-05T08:47:13.925Z,11.67
2019-05-05T08:53:44.037Z,12.26
2019-05-05T08:56:23.792Z,11.56
2019-05-05T08:59:14.315Z,11.12
2019-05-05T09:02:04.509Z,10.63
2019-05-05T09:08:24.094Z,10.64
2019-05-05T09:11:13.989Z,13.67
2019-05-05T09:14:04.129Z,15.86
2019-05-05T09:16:53.984Z,16.48
2019-05-05T09:19:44.829Z,16.78
2019-05-05T09:22:34.824Z,17.55
2019-05-05T09:31:31.978Z,10.64
2019-05-05T09:34:20.847Z,9.08
2019-05-05T09:37:09.738Z,8.80
2019-05-05T09:39:58.675Z,8.47
2019-05-05T09:42:47.507Z,8.38
2019-05-05T09:48:51.569Z,11.33
2019-05-05T09:51:40.421Z,10.59
2019-05-05T09:54:29.307Z,11.38
2019-05-05T09:57:18.290Z,12.96
2019-05-05T10:03:22.146Z,17.07
2019-05-05T10:06:11.060Z,17.13
2019-05-05T10:08:59.900Z,17.65
2019-05-05T10:11:48.790Z,18.04
2019-05-05T10:14:37.649Z,18.00
2019-05-05T10:17:26.531Z,15.71
2019-05-05T10:20:15.466Z,12.93
2019-05-05T10:23:04.346Z,11.32
2019-05-05T10:25:48.214Z,10.71
2019-05-05T10:28:37.120Z,9.76
2019-05-05T10:31:26.026Z,8.46
2019-05-05T10:34:33.908Z,8.06
2019-05-05T10:37:23.540Z,8.26
2019-05-05T10:43:23.803Z,8.86
2019-05-05T10:46:14.361Z,9.03
2019-05-05T10:49:04.082Z,9.17
2019-05-05T10:51:54.375Z,9.26
2019-05-05T10:54:44.921Z,9.66
2019-05-05T10:57:34.189Z,10.38
2019-05-05T11:03:44.623Z,13.73
2019-05-05T11:06:34.185Z,15.17
2019-05-05T11:09:24.368Z,16.33
2019-05-05T11:12:14.396Z,16.94
2019-05-05T11:15:25.275Z,16.85
2019-05-05T11:18:14.971Z,16.34
2019-05-05T11:21:04.899Z,17.14
2019-05-05T11:23:54.040Z,17.75
2019-05-05T11:26:39.554Z,16.85
2019-05-05T11:29:28.412Z,17.54
2019-05-05T11:35:45.794Z,19.17
2019-05-05T11:38:34.606Z,17.07
2019-05-05T11:41:24.272Z,14.42
2019-05-05T11:44:15.197Z,14.19
2019-05-05T11:47:04.634Z,13.42
2019-05-05T11:49:56.576Z,15.34
2019-05-05T11:52:44.454Z,17.10
2019-05-05T11:55:34.626Z,17.77
2019-05-05T12:01:38.466Z,14.63
2019-05-05T12:04:27.311Z,13.71
2019-05-05T12:07:16.147Z,13.56
2019-05-05T12:10:25.667Z,13.92
2019-05-05T12:13:14.842Z,14.63
2019-05-05T12:22:00.896Z,12.82
2019-05-05T12:34:08.898Z,12.53
2019-05-05T12:36:57.765Z,14.42
2019-05-05T12:39:46.678Z,15.38
2019-05-05T12:42:35.627Z,15.94
2019-05-05T12:51:29.667Z,14.18
2019-05-05T12:54:18.567Z,14.00
2019-05-05T12:57:07.463Z,13.06
2019-05-05T12:59:56.320Z,13.63
2019-05-05T13:02:45.262Z,15.72
2019-05-05T13:05:34.196Z,17.51
2019-05-05T13:08:23.510Z,17.95
2019-05-05T13:11:13.723Z,18.13
2019-05-05T13:14:03.690Z,16.81
2019-05-05T13:16:55.956Z,15.19
2019-05-05T13:20:02.732Z,14.34
2019-05-05T13:23:10.665Z,13.31
2019-05-05T13:25:56.786Z,12.99
2019-05-05T13:28:43.764Z,12.36
2019-05-05T13:31:33.961Z,11.92
2019-05-05T13:34:22.836Z,12.14
2019-05-05T13:37:13.965Z,13.74
2019-05-05T13:40:04.255Z,14.74
2019-05-05T13:42:54.724Z,15.64
2019-05-05T13:46:04.052Z,17.41
2019-05-05T13:48:53.911Z,17.85
2019-05-05T13:51:44.811Z,18.33
2019-05-05T13:54:34.129Z,18.96
2019-05-05T13:57:24.573Z,19.72
2019-05-05T14:03:41.920Z,19.45
2019-05-05T14:06:30.800Z,19.27
2019-05-05T14:09:19.797Z,18.76
2019-05-05T14:12:08.718Z,18.61
2019-05-05T14:14:57.556Z,18.82
2019-05-05T14:17:46.577Z,19.08
2019-05-05T14:20:35.412Z,18.78
2019-05-05T14:29:51.515Z,16.37
2019-05-05T14:36:08.883Z,14.42
2019-05-05T14:41:54.009Z,13.04
2019-05-05T14:44:44.115Z,12.94
2019-05-05T14:47:33.626Z,12.85
2019-05-05T14:50:24.219Z,12.47
2019-05-05T14:53:14.495Z,12.83
2019-05-05T14:56:04.804Z,12.94
2019-05-05T14:58:54.307Z,13.04
2019-05-05T15:01:44.877Z,12.95
2019-05-05T15:08:03.462Z,13.71
2019-05-05T15:11:11.417Z,13.43
2019-05-05T15:14:00.285Z,13.92
2019-05-05T15:16:49.273Z,13.60
2019-05-05T15:19:38.242Z,13.77
2019-05-05T15:22:27.269Z,13.87
2019-05-05T15:25:16.188Z,13.52
2019-05-05T15:27:58.441Z,13.68
2019-05-05T15:30:47.342Z,13.25
2019-05-05T15:33:36.173Z,13.24
2019-05-05T15:36:25.173Z,13.43
2019-05-05T15:39:14.014Z,13.02
2019-05-05T15:42:04.621Z,13.04
2019-05-05T15:44:54.411Z,13.04
2019-05-05T15:47:44.099Z,13.11
2019-05-05T15:53:48.060Z,12.58
2019-05-05T15:56:36.961Z,12.22
2019-05-05T15:59:25.900Z,12.27
2019-05-05T16:02:14.760Z,11.83
2019-05-05T16:08:18.990Z,11.67
2019-05-05T16:11:07.799Z,11.40
2019-05-05T16:13:56.670Z,11.55
2019-05-05T16:16:45.286Z,11.39
2019-05-05T16:22:49.458Z,11.82
2019-05-05T16:25:38.260Z,12.28
2019-05-05T16:28:19.998Z,12.69
2019-05-05T16:31:08.844Z,12.47
2019-05-05T16:33:57.675Z,12.36
2019-05-05T16:36:46.532Z,11.96
2019-05-05T16:39:35.373Z,11.79
2019-05-05T16:42:24.325Z,11.57
2019-05-05T16:48:43.780Z,11.57
2019-05-05T17:03:23.977Z,11.08
2019-05-05T17:06:14.529Z,10.84
2019-05-05T17:09:04.583Z,10.63
2019-05-05T17:12:14.072Z,10.74
2019-05-05T17:18:37.239Z,10.95
2019-05-05T17:21:45.129Z,11.05
2019-05-05T17:24:34.448Z,11.09
2019-05-05T17:27:24.701Z,11.09
2019-05-05T17:30:06.584Z,11.05
2019-05-05T17:32:55.461Z,10.84
2019-05-05T17:35:44.360Z,10.73
2019-05-05T17:38:34.099Z,10.58
2019-05-05T17:41:44.496Z,10.47
2019-05-05T17:44:52.373Z,10.42
2019-05-05T17:51:15.043Z,10.19
2019-05-05T17:54:24.199Z,10.06
2019-05-05T17:57:14.268Z,9.71
2019-05-05T18:03:21.276Z,9.58
2019-05-05T18:06:29.166Z,9.67
2019-05-05T18:09:37.029Z,9.75
2019-05-05T18:15:40.500Z,9.58
2019-05-05T18:18:29.338Z,9.63
2019-05-05T18:21:18.170Z,9.61
2019-05-05T18:24:07.036Z,9.43
2019-05-05T18:26:55.896Z,9.39
2019-05-05T18:29:37.260Z,9.48
2019-05-05T18:32:26.155Z,9.25
2019-05-05T18:35:15.091Z,9.01
2019-05-05T18:38:04.110Z,9.04
2019-05-05T18:44:09.302Z,8.97
2019-05-05T18:47:18.533Z,8.95
2019-05-05T18:50:08.330Z,9.23
2019-05-05T18:52:57.265Z,9.03
2019-05-05T18:55:46.119Z,9.02
2019-05-05T19:01:49.770Z,9.07
2019-05-05T19:04:38.315Z,8.95
2019-05-05T19:07:55.181Z,8.76
2019-05-05T19:13:13.650Z,8.52
2019-05-05T19:16:03.560Z,8.24
2019-05-05T19:18:55.582Z,8.03
2019-05-05T19:24:44.205Z,7.33
2019-05-05T19:27:33.622Z,7.03
2019-05-05T19:30:25.648Z,6.83
2019-05-05T19:33:15.539Z,6.60
2019-05-05T19:36:05.078Z,6.41
2019-05-05T19:38:54.833Z,6.25
2019-05-05T19:41:47.000Z,6.16
2019-05-05T19:44:35.086Z,6.03
2019-05-05T19:47:24.600Z,5.93
2019-05-05T19:53:35.545Z,5.85
2019-05-05T19:56:24.357Z,5.85
2019-05-05T19:59:13.829Z,5.86
2019-05-05T20:02:03.979Z,5.94
2019-05-05T20:04:53.673Z,6.00
2019-05-05T20:07:55.360Z,6.01
2019-05-05T20:10:44.422Z,5.98
2019-05-05T20:13:14.359Z,5.90
2019-05-05T20:16:23.598Z,5.90
2019-05-05T20:19:13.601Z,5.95
2019-05-05T20:22:03.131Z,6.20
2019-05-05T20:24:52.038Z,6.41
2019-05-05T20:27:40.936Z,6.45
2019-05-05T20:30:24.584Z,6.55
2019-05-05T20:33:33.781Z,6.61
2019-05-05T20:39:18.813Z,6.75
2019-05-05T20:48:18.943Z,6.86
2019-05-05T20:51:07.807Z,6.94
2019-05-05T20:53:56.630Z,6.92
2019-05-05T20:56:45.447Z,6.89
2019-05-05T20:59:34.450Z,6.84
2019-05-05T21:02:24.354Z,6.69
2019-05-05T21:05:14.574Z,6.57
2019-05-05T21:08:05.038Z,6.47
2019-05-05T21:10:55.239Z,6.49
2019-05-05T21:13:45.096Z,6.62
2019-05-05T21:16:34.677Z,6.77
2019-05-05T21:19:24.783Z,6.67
2019-05-05T21:22:33.944Z,6.50
2019-05-05T21:28:19.565Z,6.72
2019-05-05T21:31:01.262Z,6.69
2019-05-05T21:33:50.108Z,6.64
2019-05-05T21:36:38.939Z,6.69
2019-05-05T21:39:27.779Z,6.60
2019-05-05T21:42:16.720Z,6.57
2019-05-05T21:45:26.492Z,6.49
2019-05-05T21:48:15.399Z,6.24
2019-05-05T21:51:23.963Z,6.26
2019-05-05T21:54:31.900Z,6.25
2019-05-05T21:57:39.782Z,6.10
2019-05-05T22:00:47.681Z,6.20
2019-05-05T22:06:33.677Z,6.38
2019-05-05T22:09:24.258Z,6.22
2019-05-05T22:12:13.579Z,6.03
2019-05-05T22:18:32.410Z,5.93
2019-05-05T22:24:30.637Z,5.86
2019-05-05T22:27:19.458Z,6.04
2019-05-05T22:30:09.410Z,5.74
2019-05-05T22:32:51.439Z,5.53
2019-05-05T22:35:40.282Z,5.31
2019-05-05T22:38:29.112Z,5.21
2019-05-05T22:41:18.433Z,5.03
2019-05-05T22:47:35.544Z,5.01
2019-05-05T22:50:24.834Z,4.77
2019-05-05T22:53:16.227Z,4.69
2019-05-05T22:56:05.538Z,4.60
2019-05-05T22:58:54.770Z,4.66
2019-05-05T23:01:45.001Z,4.63
2019-05-05T23:04:54.528Z,4.62
2019-05-05T23:07:43.898Z,4.61
2019-05-05T23:10:34.371Z,4.60
2019-05-05T23:13:23.194Z,4.47
2019-05-05T23:19:07.991Z,4.26
2019-05-05T23:22:15.833Z,4.20
2019-05-05T23:28:20.481Z,3.92
2019-05-05T23:31:02.337Z,3.81
2019-05-05T23:33:51.172Z,3.76
2019-05-05T23:36:40.024Z,3.76
2019-05-05T23:39:28.839Z,3.73
2019-05-05T23:42:17.683Z,3.77
2019-05-05T23:48:34.938Z,3.72
2019-05-05T23:51:24.250Z,3.73
2019-05-05T23:54:14.341Z,3.72
2019-05-05T23:57:04.710Z,3.71
2019-05-05T23:59:53.848Z,3.75
